Muelle Paraguana, Venezuela
Current Conditions -  °F | °C
As of 10:00 AM on Thursday 23 Oct 2014 (Local Time) from TNCA Reporting Station
Few Clouds Few Clouds  
Wind Chill: 90°   Ceiling: Unl
Heat Index: 100°   Visibility: 6mi
Dew Point: 75°   Wind: 16mph
Humidity: 62%   Direction: 90°E
Pressure: 29.88"   Gusts: NA
Location:  11.78°N, 70.15°W
Report Text: TNCA 231400Z 09014KT 9999 FEW020 32/24 Q1012 A2989 NOSIG
Loading
Personal Weather Stations






























Interactive Weather Map New forecast layout! Learn more

10-Day Weather Forecast

Advertisements
Track Severe Weather on mobile